Time;durP1;ratioP1;P1;durP2;ratioP2;P2;SDS_P1;SDS_P2;PMS_P1;PMS_P2;Temp;Humidity;BMP_temperature;BMP_pressure;BME280_temperature;BME280_humidity;BME280_pressure;Samples;Min_cycle;Max_cycle;Signal;HPM_P1;HPM_P2
2022/04/16 00:01:10;;;;;;;12.25;7.25;;;;;;;9.69;84.32;100075.84;4466916;32;35953;-86
2022/04/16 00:03:56;;;;;;;10.73;6.80;;;;;;;9.68;84.17;100075.03;4454243;32;34464;-86
2022/04/16 00:06:42;;;;;;;12.13;7.12;;;;;;;9.62;85.74;100069.91;4467093;32;33730;-86
2022/04/16 00:09:28;;;;;;;13.23;7.15;;;;;;;9.65;84.94;100064.69;4467249;32;34662;-86
2022/04/16 00:12:15;;;;;;;11.65;7.70;;;;;;;9.74;85.37;100062.09;4466662;32;35639;-85
2022/04/16 00:15:06;;;;;;;12.37;7.37;;;;;;;9.50;86.62;100056.66;4466748;32;34192;-85
2022/04/16 00:17:53;;;;;;;12.70;7.95;;;;;;;9.64;86.76;100056.75;4465357;32;33646;-84
2022/04/16 00:20:40;;;;;;;13.57;7.85;;;;;;;9.50;87.26;100064.06;4465729;32;34964;-83
2022/04/16 00:23:26;;;;;;;13.90;8.85;;;;;;;9.31;88.97;100053.91;4465308;32;35919;-82
2022/04/16 00:26:13;;;;;;;14.25;9.50;;;;;;;9.33;89.62;100051.69;4465955;32;35509;-82
2022/04/16 00:28:59;;;;;;;13.55;8.70;;;;;;;9.24;90.63;100053.44;4466174;32;34051;-84
2022/04/16 00:31:46;;;;;;;14.55;8.20;;;;;;;9.13;91.68;100062.88;4465724;32;35548;-82
2022/04/16 00:34:33;;;;;;;15.35;9.65;;;;;;;9.20;91.68;100049.69;4467025;32;34746;-83
2022/04/16 00:37:19;;;;;;;12.77;8.15;;;;;;;9.08;91.94;100065.66;4463976;32;34163;-84
2022/04/16 00:40:06;;;;;;;13.35;9.43;;;;;;;9.11;92.01;100059.62;4466373;32;35063;-80
2022/04/16 00:42:53;;;;;;;15.50;9.73;;;;;;;9.01;91.91;100055.06;4466483;32;35454;-83
2022/04/16 00:45:39;;;;;;;13.85;10.30;;;;;;;8.90;92.37;100054.37;4452889;32;34912;-82
2022/04/16 00:48:26;;;;;;;13.88;9.00;;;;;;;8.87;91.74;100045.94;4466186;32;34133;-84
2022/04/16 00:51:13;;;;;;;15.15;9.55;;;;;;;8.88;92.08;100040.19;4465799;32;34983;-85
2022/04/16 00:54:00;;;;;;;16.23;9.45;;;;;;;8.84;90.84;100044.59;4465396;32;35550;-85
2022/04/16 00:56:47;;;;;;;12.32;8.32;;;;;;;8.89;89.52;100041.81;4465412;32;34889;-83
2022/04/16 00:59:33;;;;;;;11.43;8.63;;;;;;;8.81;88.69;100031.53;4466754;32;34657;-83
2022/04/16 01:02:20;;;;;;;12.18;8.60;;;;;;;8.73;88.24;100032.16;4465916;32;34932;-86
2022/04/16 01:05:09;;;;;;;12.77;8.57;;;;;;;8.71;88.40;100026.19;4454916;32;34128;-85
2022/04/16 01:07:58;;;;;;;12.45;7.80;;;;;;;8.73;87.99;100032.16;4465236;32;35895;-84
2022/04/16 01:10:45;;;;;;;12.02;7.40;;;;;;;8.56;88.60;100021.66;4463753;32;33575;-85
2022/04/16 01:13:32;;;;;;;14.38;8.07;;;;;;;8.59;88.13;100014.81;4465700;32;34118;-85
2022/04/16 01:16:18;;;;;;;11.60;8.57;;;;;;;8.58;88.23;100024.13;4463797;32;35694;-83
2022/04/16 01:19:08;;;;;;;11.63;7.07;;;;;;;8.63;87.55;100007.69;4464991;32;35832;-83
2022/04/16 01:21:55;;;;;;;11.70;7.78;;;;;;;8.66;87.04;100015.28;4465599;32;34049;-81
2022/04/16 01:24:48;;;;;;;10.80;8.43;;;;;;;8.37;87.72;100024.28;4465328;32;34151;-83
2022/04/16 01:27:35;;;;;;;10.05;6.60;;;;;;;8.27;88.17;100014.25;4463567;32;34256;-85
2022/04/16 01:30:22;;;;;;;11.32;6.75;;;;;;;8.28;88.42;100017.78;4462997;32;35008;-84
2022/04/16 01:33:10;;;;;;;11.07;6.87;;;;;;;8.59;86.88;100010.16;4463734;32;34134;-73
2022/04/16 01:35:57;;;;;;;12.18;7.28;;;;;;;8.15;88.89;100013.00;4462997;32;34982;-72
2022/04/16 01:38:43;;;;;;;12.45;6.55;;;;;;;8.16;88.81;100017.34;4463339;32;34267;-73
2022/04/16 01:41:29;;;;;;;11.73;7.03;;;;;;;8.25;88.87;100010.16;4461759;32;35887;-73
2022/04/16 01:44:15;;;;;;;10.75;7.28;;;;;;;8.08;89.85;100021.50;4463310;32;35339;-75
2022/04/16 01:47:03;;;;;;;12.57;7.70;;;;;;;8.07;89.50;100030.78;4462330;32;34120;-73
2022/04/16 01:49:49;;;;;;;10.75;6.70;;;;;;;8.05;89.99;100032.97;4464050;32;34268;-73
2022/04/16 01:52:36;;;;;;;12.25;6.50;;;;;;;8.20;88.94;100018.44;4462512;32;34720;-73
2022/04/16 01:55:23;;;;;;;11.23;7.28;;;;;;;8.16;89.59;100025.53;4462341;32;34500;-73
2022/04/16 01:58:09;;;;;;;12.60;7.25;;;;;;;8.41;88.67;100032.72;4461976;32;34259;-74
2022/04/16 02:00:55;;;;;;;11.12;6.93;;;;;;;7.96;90.68;100024.59;4463145;32;35491;-74
2022/04/16 02:03:43;;;;;;;12.52;7.70;;;;;;;7.96;90.82;100029.25;4463640;32;35923;-74
2022/04/16 02:06:29;;;;;;;10.65;6.82;;;;;;;8.13;90.78;100037.03;4462250;32;35342;-74
2022/04/16 02:09:16;;;;;;;12.80;7.78;;;;;;;8.20;89.51;100034.81;4452248;32;34235;-75
2022/04/16 02:12:03;;;;;;;12.77;7.55;;;;;;;7.97;90.27;100034.44;4466549;32;35155;-74
2022/04/16 02:14:49;;;;;;;11.60;7.07;;;;;;;7.86;90.52;100035.59;4462075;32;34572;-73
2022/04/16 02:17:39;;;;;;;13.55;7.78;;;;;;;8.04;90.51;100037.63;4466891;32;34259;-74
2022/04/16 02:20:25;;;;;;;12.73;8.38;;;;;;;7.85;90.93;100031.22;4465565;32;35129;-73
2022/04/16 02:23:12;;;;;;;13.85;7.80;;;;;;;7.89;90.62;100029.56;4464631;32;35591;-74
2022/04/16 02:25:58;;;;;;;13.32;7.57;;;;;;;8.20;89.66;100026.63;4465683;32;34951;-73
2022/04/16 02:28:45;;;;;;;12.00;7.45;;;;;;;7.95;91.05;100030.34;4464555;32;34559;-74
2022/04/16 02:31:31;;;;;;;11.75;7.30;;;;;;;8.28;88.57;100013.16;4464577;32;33941;-74
2022/04/16 02:34:19;;;;;;;13.68;8.25;;;;;;;7.99;90.71;100012.28;4465236;32;34364;-74
2022/04/16 02:37:05;;;;;;;13.20;7.85;;;;;;;7.90;90.89;100020.28;4466407;32;34677;-73
2022/04/16 02:39:51;;;;;;;14.00;8.30;;;;;;;7.96;92.07;100019.13;4466433;32;34145;-74
2022/04/16 02:42:40;;;;;;;12.13;7.20;;;;;;;8.02;91.37;100012.53;4465634;32;34223;-74
2022/04/16 02:48:33;;;;;;;10.77;7.05;;;;;;;8.07;90.41;100004.31;4464285;32;35066;-74
2022/04/16 02:51:19;;;;;;;12.55;7.47;;;;;;;8.27;89.14;100002.53;4466575;32;35062;-74
2022/04/16 02:54:05;;;;;;;13.25;7.65;;;;;;;8.39;88.67;100005.69;4466213;32;34921;-73
2022/04/16 02:56:54;;;;;;;11.68;7.28;;;;;;;8.23;89.32;100002.28;4465847;32;35519;-74
2022/04/16 02:59:40;;;;;;;10.50;7.35;;;;;;;8.11;89.81;99999.94;4464473;32;34969;-74
2022/04/16 03:02:26;;;;;;;10.95;7.25;;;;;;;7.96;90.70;100000.03;4463766;32;35354;-73
2022/04/16 03:05:13;;;;;;;13.10;7.95;;;;;;;7.90;90.64;100003.91;4465029;32;35053;-74
2022/04/16 03:07:59;;;;;;;11.30;6.93;;;;;;;7.97;90.28;99998.97;4454637;32;34607;-75
2022/04/16 03:10:45;;;;;;;11.73;7.22;;;;;;;7.94;90.01;99999.53;4466492;32;36524;-75
2022/04/16 03:13:34;;;;;;;12.50;7.68;;;;;;;8.03;88.98;100000.53;4463880;32;34645;-73
2022/04/16 03:19:25;;;;;;;12.48;7.03;;;;;;;7.97;89.09;100001.69;4464823;32;35440;-74
2022/04/16 03:22:13;;;;;;;13.45;6.90;;;;;;;7.88;89.73;100001.47;4464982;32;35021;-74
2022/04/16 03:25:07;;;;;;;12.60;7.60;;;;;;;8.13;88.98;100002.34;4464569;32;35098;-73
2022/04/16 03:27:54;;;;;;;10.20;6.45;;;;;;;7.69;91.11;100011.44;4465459;32;35010;-73
2022/04/16 03:30:40;;;;;;;10.90;6.55;;;;;;;7.78;90.43;100007.00;4465225;32;34596;-74
2022/04/16 03:33:27;;;;;;;9.40;6.40;;;;;;;7.67;90.80;100008.16;4464660;32;35206;-74
2022/04/16 03:36:13;;;;;;;8.75;5.47;;;;;;;7.66;90.68;100015.53;4466074;32;33660;-73
2022/04/16 03:39:00;;;;;;;9.90;6.03;;;;;;;7.75;90.26;100018.47;4466229;32;34169;-73
2022/04/16 03:41:47;;;;;;;8.90;5.60;;;;;;;7.75;90.16;100034.03;4465410;32;35147;-74
2022/04/16 03:44:33;;;;;;;7.25;4.72;;;;;;;7.77;89.83;100024.47;4465837;32;34629;-74
2022/04/16 03:47:19;;;;;;;9.45;5.28;;;;;;;7.69;90.06;100014.16;4464883;32;34488;-74
2022/04/16 03:50:07;;;;;;;8.57;4.90;;;;;;;7.54;91.50;100008.78;4454430;32;34173;-74
2022/04/16 03:52:55;;;;;;;8.10;4.93;;;;;;;7.72;90.35;100018.22;4464845;32;34598;-74
2022/04/16 04:01:50;;;;;;;8.30;4.82;;;;;;;7.52;91.86;100030.87;4466324;32;35002;-73
2022/04/16 04:04:37;;;;;;;7.85;4.55;;;;;;;7.49;92.60;100028.72;4464251;32;34726;-74
2022/04/16 04:07:23;;;;;;;8.40;5.22;;;;;;;7.46;93.61;100037.47;4463507;32;35687;-73
2022/04/16 04:10:10;;;;;;;9.00;5.45;;;;;;;7.29;93.96;100031.56;4463471;32;35390;-74
2022/04/16 04:12:56;;;;;;;9.68;5.12;;;;;;;7.38;93.68;100040.78;4464823;32;34115;-73
2022/04/16 04:15:43;;;;;;;9.55;5.53;;;;;;;7.36;93.79;100041.03;4466323;32;35679;-73
2022/04/16 04:18:29;;;;;;;8.80;4.93;;;;;;;7.41;93.13;100045.66;4466386;32;34943;-74
2022/04/16 04:21:15;;;;;;;9.63;5.30;;;;;;;7.57;91.89;100044.50;4465439;32;34532;-74
2022/04/16 04:24:02;;;;;;;10.70;5.70;;;;;;;7.39;93.01;100054.09;4464349;32;34161;-74
2022/04/16 04:26:49;;;;;;;10.10;5.43;;;;;;;7.43;93.56;100044.28;4465969;32;34654;-74
2022/04/16 04:29:36;;;;;;;8.25;5.20;;;;;;;7.49;93.00;100047.00;4463319;32;34545;-76
2022/04/16 04:32:22;;;;;;;10.70;5.87;;;;;;;7.38;93.55;100044.31;4464741;32;34168;-75
2022/04/16 04:35:09;;;;;;;9.60;5.97;;;;;;;7.26;95.14;100051.16;4464984;32;34781;-73
2022/04/16 04:37:56;;;;;;;11.43;6.65;;;;;;;7.46;94.21;100053.81;4464450;32;34726;-74
2022/04/16 04:40:42;;;;;;;11.52;6.30;;;;;;;7.39;94.29;100070.47;4462483;32;34607;-74
2022/04/16 04:43:29;;;;;;;11.60;6.25;;;;;;;7.66;92.94;100061.91;4465795;32;34577;-74
2022/04/16 04:46:14;;;;;;;9.80;6.07;;;;;;;7.73;92.86;100068.94;4466740;32;34151;-73
2022/04/16 04:49:07;;;;;;;9.93;6.28;;;;;;;7.34;94.75;100075.13;4465842;32;35610;-74
2022/04/16 04:51:53;;;;;;;10.52;6.45;;;;;;;7.26;94.60;100078.41;4466644;32;35583;-74
2022/04/16 04:54:40;;;;;;;10.15;6.20;;;;;;;7.55;93.71;100076.69;4463063;32;35512;-75
2022/04/16 04:57:26;;;;;;;10.02;5.62;;;;;;;7.57;92.92;100074.50;4464304;32;35058;-74
2022/04/16 05:00:14;;;;;;;9.60;5.68;;;;;;;7.62;92.86;100074.44;4453376;32;34148;-73
2022/04/16 05:03:00;;;;;;;10.13;5.90;;;;;;;7.47;93.28;100079.97;4465716;32;34860;-73
2022/04/16 05:05:47;;;;;;;9.13;5.65;;;;;;;7.77;91.67;100070.00;4464806;32;35432;-74
2022/04/16 05:08:34;;;;;;;9.38;6.03;;;;;;;7.72;91.85;100081.78;4451025;32;33602;-74
2022/04/16 05:11:20;;;;;;;10.52;5.60;;;;;;;7.60;91.99;100082.13;4465438;32;34591;-75
2022/04/16 05:14:06;;;;;;;11.23;6.05;;;;;;;7.91;90.29;100087.38;4461562;32;34954;-74
2022/04/16 05:16:52;;;;;;;9.15;5.25;;;;;;;7.91;89.52;100081.91;4464272;32;34580;-75
2022/04/16 05:19:38;;;;;;;8.80;5.18;;;;;;;8.17;88.46;100084.47;4464184;32;34097;-73
2022/04/16 05:22:24;;;;;;;8.20;5.00;;;;;;;8.35;87.49;100089.28;4465492;32;35186;-73
2022/04/16 05:25:11;;;;;;;9.27;5.15;;;;;;;8.13;87.47;100083.44;4465384;32;33851;-74
2022/04/16 05:27:57;;;;;;;8.98;5.37;;;;;;;8.25;88.03;100100.25;4465418;32;34662;-74
2022/04/16 05:30:54;;;;;;;7.43;4.72;;;;;;;8.23;86.58;100099.75;4463366;32;34077;-73
2022/04/16 05:36:48;;;;;;;9.38;5.18;;;;;;;8.37;85.18;100102.63;4464664;32;35021;-73
2022/04/16 05:39:34;;;;;;;7.82;4.60;;;;;;;8.25;85.80;100102.97;4465232;32;35396;-73
2022/04/16 05:42:21;;;;;;;7.50;4.43;;;;;;;8.56;83.64;100115.34;4463376;32;33767;-74
2022/04/16 05:45:09;;;;;;;8.20;4.87;;;;;;;8.36;84.60;100110.00;4465782;32;34462;-74
2022/04/16 05:47:55;;;;;;;7.47;4.57;;;;;;;8.13;85.42;100111.53;4462921;32;36542;-74
2022/04/16 05:50:44;;;;;;;7.00;4.22;;;;;;;8.54;83.02;100106.62;4466660;32;34224;-73
2022/04/16 05:53:31;;;;;;;7.32;4.18;;;;;;;8.60;83.06;100103.84;4465860;32;35047;-74
2022/04/16 05:56:18;;;;;;;7.00;4.10;;;;;;;8.49;83.42;100100.41;4465702;32;34386;-75
2022/04/16 05:59:05;;;;;;;6.57;3.78;;;;;;;8.23;84.82;100107.94;4466456;32;36296;-75
2022/04/16 06:01:51;;;;;;;6.93;4.10;;;;;;;8.41;83.81;100114.66;4467159;32;35324;-75
2022/04/16 06:04:37;;;;;;;7.18;4.12;;;;;;;8.43;82.89;100117.94;4465326;32;33487;-75
2022/04/16 06:07:24;;;;;;;7.10;4.15;;;;;;;8.42;82.73;100119.81;4467657;32;35268;-75
2022/04/16 06:10:11;;;;;;;8.13;4.45;;;;;;;8.30;82.94;100116.59;4465991;32;35950;-76
2022/04/16 06:12:57;;;;;;;6.68;4.10;;;;;;;8.32;82.83;100119.88;4466172;32;35113;-75
2022/04/16 06:15:43;;;;;;;8.20;4.60;;;;;;;8.40;82.90;100122.03;4464602;32;34641;-76
2022/04/16 06:18:30;;;;;;;5.68;3.53;;;;;;;8.29;83.07;100118.53;4465567;32;34644;-76
2022/04/16 06:21:16;;;;;;;8.30;4.45;;;;;;;8.43;81.84;100116.00;4465692;32;35876;-75
2022/04/16 06:24:02;;;;;;;7.57;4.10;;;;;;;8.22;82.04;100114.47;4464988;32;34310;-76
2022/04/16 06:26:48;;;;;;;6.95;3.87;;;;;;;8.52;80.95;100119.75;4465127;32;34986;-75
2022/04/16 06:29:35;;;;;;;8.02;4.00;;;;;;;8.32;81.84;100117.97;4462861;32;35651;-76
2022/04/16 06:32:21;;;;;;;7.28;3.70;;;;;;;8.55;80.79;100124.63;4466197;32;34981;-76
2022/04/16 06:35:08;;;;;;;7.65;3.95;;;;;;;8.46;81.13;100131.81;4465965;32;35308;-75
2022/04/16 06:37:54;;;;;;;6.18;3.90;;;;;;;8.72;79.38;100128.87;4462295;32;34017;-75
2022/04/16 06:40:41;;;;;;;7.10;3.80;;;;;;;8.80;79.04;100141.94;4452282;32;35551;-76
2022/04/16 06:43:27;;;;;;;7.40;4.07;;;;;;;8.83;78.50;100135.87;4465284;32;36339;-76
2022/04/16 06:46:18;;;;;;;5.82;3.90;;;;;;;8.77;78.32;100146.03;4453990;32;35063;-76
2022/04/16 06:49:05;;;;;;;7.18;4.37;;;;;;;8.88;78.12;100133.13;4461427;32;33846;-75
2022/04/16 06:51:52;;;;;;;6.60;3.95;;;;;;;9.09;76.34;100143.84;4462979;32;35502;-76
2022/04/16 06:54:39;;;;;;;7.65;3.78;;;;;;;9.34;75.19;100145.50;4465182;32;35685;-76
2022/04/16 06:57:26;;;;;;;7.32;4.00;;;;;;;9.94;73.18;100142.31;4464764;32;34379;-75
2022/04/16 07:00:19;;;;;;;5.95;3.50;;;;;;;9.74;72.87;100140.66;4463313;32;34666;-75
2022/04/16 07:03:07;;;;;;;6.35;3.75;;;;;;;9.74;72.47;100137.91;4464035;32;35353;-75
2022/04/16 07:05:54;;;;;;;7.40;3.85;;;;;;;9.87;72.29;100143.47;4451850;32;36006;-75
2022/04/16 07:08:40;;;;;;;6.53;3.72;;;;;;;10.16;71.26;100142.56;4464317;32;34517;-75
2022/04/16 07:11:27;;;;;;;6.35;4.07;;;;;;;10.06;70.72;100142.69;4464405;32;34172;-75
2022/04/16 07:14:13;;;;;;;6.00;3.37;;;;;;;9.97;70.51;100147.19;4464844;32;36127;-75
2022/04/16 07:17:01;;;;;;;5.95;3.50;;;;;;;10.00;69.51;100147.41;4465469;32;34917;-75
2022/04/16 07:19:47;;;;;;;7.55;3.65;;;;;;;10.03;69.50;100151.50;4465617;32;34113;-76
2022/04/16 07:22:36;;;;;;;5.72;3.87;;;;;;;10.27;69.58;100151.44;4458130;32;33797;-74
2022/04/16 07:25:22;;;;;;;6.65;3.60;;;;;;;10.14;67.33;100139.28;4462956;32;35120;-76
2022/04/16 07:28:11;;;;;;;6.80;3.58;;;;;;;10.39;67.42;100142.78;4463376;32;36157;-75
2022/04/16 07:30:57;;;;;;;6.10;3.40;;;;;;;10.61;66.41;100142.97;4464818;32;34977;-76
2022/04/16 07:33:43;;;;;;;6.12;3.55;;;;;;;10.51;66.02;100156.84;4462780;32;34903;-77
2022/04/16 07:36:29;;;;;;;5.97;3.20;;;;;;;10.73;65.76;100154.31;4464203;32;34581;-77
2022/04/16 07:39:16;;;;;;;6.95;3.40;;;;;;;10.56;66.86;100154.84;4461069;32;35911;-77
2022/04/16 07:42:02;;;;;;;7.12;3.40;;;;;;;10.71;67.17;100150.22;4461522;32;34070;-76
2022/04/16 07:44:49;;;;;;;6.28;3.47;;;;;;;10.88;67.04;100160.66;4452257;32;34893;-76
2022/04/16 07:47:35;;;;;;;5.95;3.15;;;;;;;11.06;65.26;100161.69;4464526;32;34656;-77
2022/04/16 07:50:21;;;;;;;6.25;3.45;;;;;;;11.44;62.39;100162.34;4466045;32;35966;-77
2022/04/16 07:53:08;;;;;;;5.00;2.70;;;;;;;11.16;63.21;100167.00;4466644;32;35413;-77
2022/04/16 07:55:54;;;;;;;5.50;3.15;;;;;;;11.56;61.98;100165.44;4464696;32;34033;-76
2022/04/16 07:58:40;;;;;;;6.45;3.30;;;;;;;11.61;60.22;100168.06;4463952;32;34637;-76
2022/04/16 08:01:27;;;;;;;6.18;3.10;;;;;;;11.77;61.14;100160.31;4464798;32;36032;-76
2022/04/16 08:04:14;;;;;;;4.93;2.70;;;;;;;11.40;59.95;100164.09;4465861;32;34595;-76
2022/04/16 08:07:00;;;;;;;5.47;2.83;;;;;;;11.11;60.14;100170.66;4464067;32;35035;-76
2022/04/16 08:09:47;;;;;;;5.18;2.80;;;;;;;10.87;63.41;100169.97;4464287;32;35606;-76
2022/04/16 08:12:33;;;;;;;4.65;2.65;;;;;;;11.43;62.50;100167.03;4466185;32;34902;-76
2022/04/16 08:15:19;;;;;;;4.75;2.28;;;;;;;11.31;63.12;100169.47;4466493;32;34606;-77
2022/04/16 08:18:07;;;;;;;4.85;2.72;;;;;;;11.16;61.51;100173.31;4465883;32;33986;-76
2022/04/16 08:20:53;;;;;;;3.90;2.05;;;;;;;11.34;61.28;100168.03;4464469;32;34624;-77
2022/04/16 08:23:44;;;;;;;4.47;2.67;;;;;;;11.46;61.31;100179.34;4465237;32;35227;-77
2022/04/16 08:26:31;;;;;;;3.90;2.12;;;;;;;11.27;60.98;100184.91;4457208;32;35335;-79
2022/04/16 08:29:18;;;;;;;4.45;2.20;;;;;;;11.26;60.36;100178.59;4464985;32;33851;-78
2022/04/16 08:32:05;;;;;;;4.40;2.42;;;;;;;11.31;60.42;100187.84;4465100;32;34779;-77
2022/04/16 08:35:14;;;;;;;4.72;2.40;;;;;;;11.43;60.55;100188.16;4465048;32;35868;-79
2022/04/16 08:38:00;;;;;;;5.00;2.10;;;;;;;11.42;59.88;100187.38;4464054;32;34550;-79
2022/04/16 08:40:47;;;;;;;6.97;2.75;;;;;;;11.71;60.17;100184.31;4464820;32;35026;-78
2022/04/16 08:43:34;;;;;;;4.90;2.22;;;;;;;11.22;62.21;100171.28;4463488;32;35262;-78
2022/04/16 08:46:21;;;;;;;5.40;1.98;;;;;;;11.08;62.54;100187.72;4462919;32;34922;-78
2022/04/16 08:49:08;;;;;;;5.47;2.30;;;;;;;10.99;62.38;100195.81;4465459;32;34538;-78
2022/04/16 08:51:55;;;;;;;4.43;2.40;;;;;;;11.07;61.87;100198.97;4450770;32;33974;-76
2022/04/16 08:54:42;;;;;;;2.97;1.80;;;;;;;10.79;62.25;100196.16;4463461;32;35433;-75
2022/04/16 08:57:28;;;;;;;4.10;2.03;;;;;;;10.84;63.05;100195.22;4466077;32;35048;-76
2022/04/16 09:00:15;;;;;;;4.03;2.28;;;;;;;11.11;62.60;100198.06;4464927;32;34538;-75
2022/04/16 09:03:03;;;;;;;3.22;2.28;;;;;;;11.01;61.96;100192.75;4464416;32;34008;-76
2022/04/16 09:05:54;;;;;;;3.53;1.92;;;;;;;11.25;61.48;100198.09;4466162;32;34196;-75
2022/04/16 09:08:42;;;;;;;3.83;1.80;;;;;;;10.88;61.97;100199.84;4461881;32;34984;-77
2022/04/16 09:11:28;;;;;;;3.53;1.48;;;;;;;11.16;61.07;100195.25;4462786;32;35580;-78
2022/04/16 09:14:15;;;;;;;3.85;1.60;;;;;;;11.07;61.53;100199.81;4464838;32;33664;-78
2022/04/16 09:17:02;;;;;;;3.62;2.03;;;;;;;10.85;62.66;100205.09;4453046;32;34561;-77
2022/04/16 09:19:53;;;;;;;3.37;2.00;;;;;;;10.90;62.64;100205.00;4466660;32;33897;-77
2022/04/16 09:22:41;;;;;;;3.60;1.70;;;;;;;10.29;64.36;100210.28;4465819;32;34245;-77
2022/04/16 09:25:31;;;;;;;4.18;1.67;;;;;;;10.32;64.12;100214.38;4456291;32;33630;-78
2022/04/16 09:28:19;;;;;;;2.33;1.33;;;;;;;10.67;62.88;100210.31;4465162;32;34719;-77
2022/04/16 09:31:07;;;;;;;3.78;1.65;;;;;;;10.54;63.40;100211.88;4455744;32;35883;-79
2022/04/16 09:33:55;;;;;;;4.82;2.00;;;;;;;10.79;62.84;100207.91;4461346;32;35384;-78
2022/04/16 09:36:43;;;;;;;4.43;1.95;;;;;;;11.22;60.41;100207.75;4465820;32;34141;-79
2022/04/16 09:39:30;;;;;;;3.00;1.70;;;;;;;11.00;61.02;100208.41;4464823;32;35494;-77
2022/04/16 09:42:26;;;;;;;2.80;1.75;;;;;;;11.31;60.41;100209.81;4465576;32;35135;-78
2022/04/16 09:45:16;;;;;;;3.62;1.73;;;;;;;11.43;61.04;100204.62;4465632;32;35319;-78
2022/04/16 09:48:03;;;;;;;3.90;2.00;;;;;;;11.29;60.76;100203.78;4461435;32;34107;-80
2022/04/16 09:50:51;;;;;;;3.10;1.45;;;;;;;11.46;60.30;100206.78;4455300;32;34665;-78
2022/04/16 09:53:37;;;;;;;4.57;1.77;;;;;;;11.58;59.40;100190.59;4464785;32;34516;-78
2022/04/16 09:56:27;;;;;;;3.45;1.73;;;;;;;11.22;60.20;100199.53;4464138;32;35234;-78
2022/04/16 09:59:15;;;;;;;4.30;1.80;;;;;;;11.81;58.87;100199.78;4465108;32;33730;-78
2022/04/16 10:02:03;;;;;;;3.85;1.90;;;;;;;12.07;57.12;100204.78;4466122;32;35612;-78
2022/04/16 10:04:50;;;;;;;3.17;1.80;;;;;;;11.90;57.67;100199.91;4465352;32;34936;-77
2022/04/16 10:07:37;;;;;;;2.35;1.50;;;;;;;12.06;56.88;100206.69;4464993;32;34596;-78
2022/04/16 10:10:30;;;;;;;3.58;1.65;;;;;;;11.70;57.69;100204.66;4466383;32;34219;-78
2022/04/16 10:13:19;;;;;;;5.70;2.40;;;;;;;11.97;58.03;100194.81;4464951;32;35510;-78
2022/04/16 10:16:19;;;;;;;4.82;2.12;;;;;;;11.92;57.53;100195.75;4462175;32;36415;-79
2022/04/16 10:19:16;;;;;;;5.03;2.15;;;;;;;11.45;58.76;100197.72;4464609;32;35164;-79
2022/04/16 10:22:02;;;;;;;2.50;1.23;;;;;;;11.35;58.89;100202.59;4464414;32;33614;-77
2022/04/16 10:24:54;;;;;;;4.18;1.62;;;;;;;11.50;58.00;100196.84;4465744;32;35164;-76
2022/04/16 10:27:40;;;;;;;4.47;1.62;;;;;;;11.25;58.91;100196.19;4463039;32;34985;-76
2022/04/16 10:30:35;;;;;;;2.45;1.45;;;;;;;11.55;58.16;100198.66;4465158;32;34517;-76
2022/04/16 10:33:31;;;;;;;2.55;1.50;;;;;;;11.36;58.08;100205.03;4464654;32;35082;-76
2022/04/16 10:36:24;;;;;;;2.87;1.50;;;;;;;11.25;58.83;100201.66;4464543;32;34185;-75
2022/04/16 10:39:24;;;;;;;2.10;1.30;;;;;;;11.30;58.18;100210.91;4464889;32;35044;-76
2022/04/16 10:42:10;;;;;;;2.70;1.33;;;;;;;11.75;57.38;100206.47;4463889;32;35436;-76
2022/04/16 10:45:07;;;;;;;2.55;1.23;;;;;;;11.80;56.00;100197.34;4464911;32;34061;-78
2022/04/16 10:47:55;;;;;;;2.78;1.05;;;;;;;11.82;56.25;100197.84;4464660;32;34217;-76
2022/04/16 10:50:44;;;;;;;3.40;1.60;;;;;;;11.82;56.17;100201.41;4466414;32;34540;-76
2022/04/16 10:53:32;;;;;;;2.92;1.60;;;;;;;11.80;55.94;100191.84;4464773;32;35506;-77
2022/04/16 10:56:22;;;;;;;2.37;1.58;;;;;;;12.20;54.73;100189.41;4467002;32;33644;-77
2022/04/16 10:59:11;;;;;;;2.17;1.23;;;;;;;11.98;54.85;100190.97;4454538;32;34666;-77
2022/04/16 11:01:58;;;;;;;2.12;1.17;;;;;;;11.97;55.33;100192.06;4453028;32;34907;-77
2022/04/16 11:04:57;;;;;;;2.47;1.30;;;;;;;11.97;54.47;100192.06;4454466;32;35387;-78
2022/04/16 11:07:46;;;;;;;1.95;1.00;;;;;;;11.97;54.34;100197.56;4466626;32;33741;-78
2022/04/16 11:10:32;;;;;;;2.00;1.20;;;;;;;11.85;53.58;100192.59;4463636;32;34716;-79
2022/04/16 11:13:19;;;;;;;3.33;1.10;;;;;;;12.28;52.84;100188.66;4466111;32;33886;-79
2022/04/16 11:16:06;;;;;;;2.42;1.50;;;;;;;11.91;53.80;100190.56;4465317;32;33290;-79
2022/04/16 11:18:53;;;;;;;1.83;1.10;;;;;;;11.87;54.32;100192.31;4462927;32;34143;-79
2022/04/16 11:21:39;;;;;;;1.90;1.00;;;;;;;12.07;53.48;100208.34;4464852;32;35313;-78
2022/04/16 11:24:26;;;;;;;1.50;0.90;;;;;;;11.75;53.50;100202.94;4465901;32;34934;-79
2022/04/16 11:36:28;;;;;;;2.62;0.95;;;;;;;12.19;53.01;100193.28;4455991;32;34979;-81
2022/04/16 11:39:22;;;;;;;1.98;0.90;;;;;;;11.82;54.61;100184.94;4467216;32;35338;-80
2022/04/16 11:42:09;;;;;;;1.90;1.10;;;;;;;11.97;55.76;100203.06;4463698;32;34683;-79
2022/04/16 11:44:56;;;;;;;2.35;1.00;;;;;;;11.30;57.65;100198.03;4465381;32;34684;-80
2022/04/16 11:47:42;;;;;;;2.67;1.00;;;;;;;11.54;59.07;100200.59;4463455;32;34745;-80
2022/04/16 11:50:29;;;;;;;2.80;1.05;;;;;;;11.49;62.60;100204.22;4456556;32;34511;-81
2022/04/16 11:53:15;;;;;;;2.37;1.15;;;;;;;11.36;65.32;100213.28;4467534;32;35134;-79
2022/04/16 11:56:01;;;;;;;2.10;1.15;;;;;;;11.11;65.24;100213.72;4468892;32;35579;-79
2022/04/16 11:58:52;;;;;;;5.78;2.00;;;;;;;10.80;66.29;100206.78;4468443;32;34851;-79
2022/04/16 12:01:38;;;;;;;1.87;1.20;;;;;;;10.74;61.88;100216.22;4462828;32;34624;-80
2022/04/16 12:04:41;;;;;;;2.08;1.12;;;;;;;10.80;59.92;100212.28;4467984;32;35705;-78
2022/04/16 12:07:30;;;;;;;2.97;1.30;;;;;;;10.47;63.09;100207.84;4455802;32;35515;-78
2022/04/16 12:10:17;;;;;;;1.73;1.10;;;;;;;10.45;62.52;100202.69;4456985;32;34981;-78
2022/04/16 12:13:09;;;;;;;1.55;0.90;;;;;;;10.72;63.17;100192.97;4456974;32;34648;-79
2022/04/16 12:16:03;;;;;;;2.15;0.80;;;;;;;11.05;58.77;100180.09;4464248;32;34137;-78
2022/04/16 12:18:49;;;;;;;2.67;1.10;;;;;;;11.55;58.70;100180.25;4467528;32;34613;-79
2022/04/16 12:21:40;;;;;;;2.33;1.05;;;;;;;11.60;56.57;100191.12;4467277;32;36068;-79
2022/04/16 12:24:27;;;;;;;1.70;1.10;;;;;;;12.07;53.59;100189.13;4453883;32;35565;-77
2022/04/16 12:27:27;;;;;;;1.55;0.90;;;;;;;12.43;53.22;100160.03;4467254;32;33727;-78
2022/04/16 12:30:19;;;;;;;;;;;;;;;12.70;53.07;100170.91;4468245;32;35247;-78
2022/04/16 12:33:11;;;;;;;1.27;0.88;;;;;;;12.97;49.15;100167.22;4456415;32;36155;-79
2022/04/16 12:35:58;;;;;;;1.52;0.80;;;;;;;13.60;50.19;100159.78;4455243;32;34289;-79
2022/04/16 12:38:45;;;;;;;3.30;0.90;;;;;;;13.91;48.06;100153.41;4466705;32;34098;-79
2022/04/16 12:41:30;;;;;;;1.75;0.75;;;;;;;14.25;47.97;100163.66;4465710;32;34605;-78
2022/04/16 12:44:17;;;;;;;2.33;0.88;;;;;;;13.22;47.69;100148.44;4466068;32;36013;-77
2022/04/16 12:47:03;;;;;;;1.83;0.90;;;;;;;12.88;48.29;100191.09;4466896;32;35084;-79
2022/04/16 12:49:53;;;;;;;1.17;0.88;;;;;;;12.83;48.23;100153.56;4466295;32;32864;-78
2022/04/16 12:52:43;;;;;;;2.03;0.80;;;;;;;13.09;48.61;100152.06;4463160;32;34601;-79
2022/04/16 12:55:50;;;;;;;1.60;1.05;;;;;;;13.65;46.10;100153.31;4466268;32;34936;-79
2022/04/16 12:58:36;;;;;;;2.12;0.82;;;;;;;13.22;47.38;100156.69;4465648;32;34575;-76
2022/04/16 13:01:22;;;;;;;2.20;0.80;;;;;;;13.24;46.82;100157.19;4466540;32;34693;-80
2022/04/16 13:04:09;;;;;;;3.83;0.90;;;;;;;13.54;45.70;100150.03;4466878;32;34626;-80
2022/04/16 13:06:55;;;;;;;2.65;0.90;;;;;;;13.31;46.86;100143.78;4467109;32;34992;-79
2022/04/16 13:09:41;;;;;;;8.23;1.00;;;;;;;13.10;46.42;100145.47;4466193;32;34531;-79
2022/04/16 13:12:28;;;;;;;3.10;0.85;;;;;;;13.36;46.21;100146.41;4457202;32;221921;-79
2022/04/16 13:15:14;;;;;;;1.08;0.68;;;;;;;13.40;45.46;100133.62;4463885;32;34212;-78
2022/04/16 13:18:03;;;;;;;1.20;0.82;;;;;;;13.54;44.71;100143.72;4467004;32;35945;-79
2022/04/16 13:20:49;;;;;;;1.12;0.60;;;;;;;13.46;45.86;100139.81;4467779;32;35497;-80
2022/04/16 13:23:35;;;;;;;1.10;0.73;;;;;;;13.70;45.23;100145.72;4468628;32;35015;-78
2022/04/16 13:26:22;;;;;;;2.15;1.35;;;;;;;13.07;46.20;100148.84;4468027;32;34429;-79